KMLU

Monroe Regional Airport

Monroe, Louisiana, USA
METAR KMLU 150053Z 15003KT 6SM HZ CLR 29/22 A2996 RMK AO2 SLP142 T02940222
Observed Flight Rules
Aug-15 @ 00:53 UTC (12 minutes ago) Visual Flight Rules
Wind Visibility Clouds Conditions
150° at 3 knots 6 miles
  • Clear skies
  • Haze
Temperatures Readings
Current 29°C / 84°F
Dewpoint 22°C / 72°F
Humidity 66%
Altimeter 29.96" Hg
Pressure 1014.2 hPa
Elevation 29
METAR KMLU 150053Z 15003KT 6SM HZ CLR 29/22 A2996 RMK AO2 SLP142 T02940222
Observed Flight Rules
Aug-15 @ 00:53 UTC
(12 minutes ago)
VFR
Wind Visibility
150° at 3 knots 6 miles
Clouds
  • Clear skies
Conditions
  • Haze
Temperature Dewpoint
29°C / 84°F 22°C / 72°F
Humidity Altimeter Pressure
66% 29.96" Hg 1014.2 hPa